createdAt,value
2023-01-17T00:01:34.983Z,93546.44
2023-01-17T00:04:20.027Z,93539.00
2023-01-17T00:07:05.562Z,93539.41
2023-01-17T00:09:50.542Z,93540.97
2023-01-17T00:12:17.563Z,93540.47
2023-01-17T00:14:44.643Z,93535.38
2023-01-17T00:17:11.292Z,93534.88
2023-01-17T00:19:56.350Z,93536.50
2023-01-17T00:22:44.513Z,93540.28
2023-01-17T00:25:31.596Z,93545.00
2023-01-17T00:27:59.152Z,93539.56
2023-01-17T00:30:25.798Z,93540.09
2023-01-17T00:32:52.488Z,93546.44
2023-01-17T00:35:20.373Z,93551.56
2023-01-17T00:37:46.953Z,93551.44
2023-01-17T00:40:13.601Z,93554.94
2023-01-17T00:42:40.199Z,93558.63
2023-01-17T00:45:25.883Z,93557.78
2023-01-17T00:48:10.724Z,93558.91
2023-01-17T00:50:56.156Z,93554.78
2023-01-17T00:53:41.218Z,93558.72
2023-01-17T00:56:27.111Z,93568.34
2023-01-17T00:59:13.031Z,93570.34
2023-01-17T01:01:58.447Z,93565.97
2023-01-17T01:04:43.591Z,93575.50
2023-01-17T01:07:28.989Z,93577.56
2023-01-17T01:10:14.283Z,93577.16
2023-01-17T01:12:59.595Z,93585.03
2023-01-17T01:15:44.454Z,93590.84
2023-01-17T01:18:30.586Z,93586.69
2023-01-17T01:21:21.440Z,93589.88
2023-01-17T01:24:06.428Z,93595.19
2023-01-17T01:26:51.847Z,93592.88
2023-01-17T01:29:36.966Z,93594.59
2023-01-17T01:32:22.368Z,93589.91
2023-01-17T01:34:48.985Z,93596.19
2023-01-17T01:37:15.598Z,93591.50
2023-01-17T01:39:42.180Z,93598.84
2023-01-17T01:42:15.926Z,93597.59
2023-01-17T01:44:53.924Z,93599.63
2023-01-17T01:47:35.640Z,93603.66
2023-01-17T01:50:05.211Z,93602.13
2023-01-17T01:52:34.985Z,93597.72
2023-01-17T01:55:06.400Z,93603.34
2023-01-17T01:57:38.581Z,93599.31
2023-01-17T02:00:11.716Z,93602.75
2023-01-17T02:02:38.915Z,93607.75
2023-01-17T02:05:05.949Z,93602.88
2023-01-17T02:07:39.551Z,93608.06
2023-01-17T02:10:06.327Z,93604.63
2023-01-17T02:12:33.207Z,93598.03
2023-01-17T02:15:00.394Z,93602.56
2023-01-17T02:17:26.944Z,93603.69
2023-01-17T02:20:22.114Z,93601.81
2023-01-17T02:23:19.344Z,93607.75
2023-01-17T02:26:10.284Z,93609.63
2023-01-17T02:28:55.255Z,93598.22
2023-01-17T02:31:30.560Z,93606.38
2023-01-17T02:34:10.950Z,93607.44
2023-01-17T02:36:46.136Z,93609.97
2023-01-17T02:39:35.376Z,93613.03
2023-01-17T02:42:06.568Z,93608.84
2023-01-17T02:44:40.948Z,93607.75
2023-01-17T02:47:42.868Z,93614.28
2023-01-17T02:50:16.410Z,93624.91
2023-01-17T02:53:17.619Z,93618.97
2023-01-17T02:56:02.941Z,93615.53
2023-01-17T02:58:59.991Z,93617.75
2023-01-17T03:02:04.532Z,93626.50
2023-01-17T03:04:42.041Z,93621.63
2023-01-17T03:07:17.653Z,93628.06
2023-01-17T03:09:48.484Z,93632.13
2023-01-17T03:12:15.402Z,93632.25
2023-01-17T03:14:42.063Z,93642.72
2023-01-17T03:17:09.124Z,93639.00
2023-01-17T03:19:35.783Z,93636.03
2023-01-17T03:22:02.391Z,93641.28
2023-01-17T03:24:29.068Z,93646.44
2023-01-17T03:26:55.724Z,93660.19
2023-01-17T03:29:22.313Z,93662.53
2023-01-17T03:31:48.999Z,93659.88
2023-01-17T03:34:15.605Z,93654.41
2023-01-17T03:36:42.277Z,93654.06
2023-01-17T03:39:08.989Z,93653.84
2023-01-17T03:41:35.555Z,93662.34
2023-01-17T03:44:02.410Z,93674.41
2023-01-17T03:46:29.051Z,93679.09
2023-01-17T03:48:55.678Z,93673.56
2023-01-17T03:51:22.575Z,93670.69
2023-01-17T03:53:50.708Z,93673.13
2023-01-17T03:56:17.739Z,93681.91
2023-01-17T03:58:44.432Z,93684.50
2023-01-17T04:01:12.185Z,93674.16
2023-01-17T04:03:39.393Z,93672.00
2023-01-17T04:06:06.388Z,93675.00
2023-01-17T04:08:33.046Z,93674.50
2023-01-17T04:10:59.695Z,93671.13
2023-01-17T04:13:26.322Z,93673.28
2023-01-17T04:15:53.083Z,93670.50
2023-01-17T04:18:21.097Z,93659.66
2023-01-17T04:20:47.700Z,93664.16
2023-01-17T04:23:14.299Z,93669.88
2023-01-17T04:25:40.868Z,93664.91
2023-01-17T04:28:07.536Z,93651.84
2023-01-17T04:30:34.287Z,93648.94
2023-01-17T04:33:01.199Z,93648.50
2023-01-17T04:35:31.135Z,93653.19
2023-01-17T04:37:57.774Z,93656.00
2023-01-17T04:40:24.926Z,93657.72
2023-01-17T04:42:51.523Z,93657.41
2023-01-17T04:45:18.230Z,93651.31
2023-01-17T04:47:44.863Z,93643.97
2023-01-17T04:50:11.909Z,93645.84
2023-01-17T04:52:38.766Z,93659.75
2023-01-17T04:55:06.232Z,93650.53
2023-01-17T04:57:32.883Z,93647.22
2023-01-17T04:59:59.702Z,93662.69
2023-01-17T05:02:26.555Z,93671.00
2023-01-17T05:04:53.189Z,93668.97
2023-01-17T05:07:19.792Z,93659.25
2023-01-17T05:09:46.437Z,93656.75
2023-01-17T05:12:12.991Z,93655.19
2023-01-17T05:14:39.587Z,93659.28
2023-01-17T05:17:06.204Z,93648.31
2023-01-17T05:19:32.793Z,93653.06
2023-01-17T05:22:04.174Z,93657.25
2023-01-17T05:24:31.534Z,93660.38
2023-01-17T05:27:03.124Z,93661.63
2023-01-17T05:29:30.831Z,93665.38
2023-01-17T05:31:57.761Z,93658.66
2023-01-17T05:34:24.511Z,93669.72
2023-01-17T05:36:51.392Z,93663.03
2023-01-17T05:39:18.170Z,93654.41
2023-01-17T05:41:44.887Z,93669.44
2023-01-17T05:44:11.634Z,93661.28
2023-01-17T05:46:38.370Z,93667.38
2023-01-17T05:49:05.420Z,93662.81
2023-01-17T05:51:32.167Z,93674.53
2023-01-17T05:53:58.869Z,93673.63
2023-01-17T05:56:25.524Z,93684.38
2023-01-17T05:58:52.194Z,93691.91
2023-01-17T06:01:19.695Z,93697.25
2023-01-17T06:03:46.394Z,93700.53
2023-01-17T06:06:13.350Z,93700.38
2023-01-17T06:08:39.957Z,93692.09
2023-01-17T06:11:06.648Z,93701.59
2023-01-17T06:13:33.240Z,93702.69
2023-01-17T06:16:04.273Z,93694.25
2023-01-17T06:18:31.704Z,93700.66
2023-01-17T06:20:58.763Z,93698.31
2023-01-17T06:23:25.787Z,93701.25
2023-01-17T06:25:52.471Z,93710.47
2023-01-17T06:28:21.235Z,93704.72
2023-01-17T06:30:48.312Z,93718.63
2023-01-17T06:33:15.515Z,93714.56
2023-01-17T06:35:50.135Z,93710.97
2023-01-17T06:38:16.871Z,93722.22
2023-01-17T06:40:43.563Z,93719.84
2023-01-17T06:43:10.526Z,93720.78
2023-01-17T06:45:37.161Z,93727.81
2023-01-17T06:48:05.379Z,93715.03
2023-01-17T06:50:33.169Z,93716.25
2023-01-17T06:53:05.316Z,93729.44
2023-01-17T06:55:33.910Z,93727.25
2023-01-17T06:58:03.011Z,93732.84
2023-01-17T07:00:31.228Z,93728.81
2023-01-17T07:02:58.236Z,93726.44
2023-01-17T07:05:25.520Z,93728.03
2023-01-17T07:07:53.616Z,93726.28
2023-01-17T07:10:21.086Z,93717.84
2023-01-17T07:12:47.747Z,93727.38
2023-01-17T07:15:14.559Z,93724.06
2023-01-17T07:17:41.274Z,93714.72
2023-01-17T07:20:08.839Z,93718.75
2023-01-17T07:22:37.755Z,93716.41
2023-01-17T07:25:05.290Z,93708.91
2023-01-17T07:27:33.606Z,93708.44
2023-01-17T07:30:00.372Z,93710.16
2023-01-17T07:32:27.080Z,93708.75
2023-01-17T07:34:54.667Z,93702.94
2023-01-17T07:37:21.675Z,93706.56
2023-01-17T07:39:48.295Z,93706.09
2023-01-17T07:42:15.260Z,93708.91
2023-01-17T07:44:44.097Z,93697.03
2023-01-17T07:47:11.595Z,93698.59
2023-01-17T07:49:38.344Z,93697.63
2023-01-17T07:52:07.591Z,93702.00
2023-01-17T07:54:34.476Z,93700.59
2023-01-17T07:57:01.745Z,93703.09
2023-01-17T07:59:28.473Z,93704.78
2023-01-17T08:01:55.277Z,93699.28
2023-01-17T08:04:25.686Z,93698.69
2023-01-17T08:06:52.311Z,93692.50
2023-01-17T08:09:18.941Z,93698.69
2023-01-17T08:11:45.523Z,93703.53
2023-01-17T08:14:12.139Z,93702.38
2023-01-17T08:16:40.148Z,93704.72
2023-01-17T08:19:06.873Z,93703.81
2023-01-17T08:21:33.510Z,93700.34
2023-01-17T08:24:00.144Z,93696.09
2023-01-17T08:26:27.485Z,93692.53
2023-01-17T08:28:55.140Z,93692.81
2023-01-17T08:31:21.866Z,93694.84
2023-01-17T08:33:48.593Z,93701.84
2023-01-17T08:36:15.187Z,93711.44
2023-01-17T08:38:41.806Z,93703.09
2023-01-17T08:41:08.453Z,93708.72
2023-01-17T08:43:35.072Z,93705.69
2023-01-17T08:46:02.043Z,93697.84
2023-01-17T08:48:28.724Z,93690.59
2023-01-17T08:50:55.354Z,93690.22
2023-01-17T08:53:23.209Z,93684.38
2023-01-17T08:55:57.747Z,93684.22
2023-01-17T08:58:24.316Z,93678.41
2023-01-17T09:00:51.003Z,93677.91
2023-01-17T09:03:17.639Z,93668.69
2023-01-17T09:05:44.325Z,93675.16
2023-01-17T09:08:11.313Z,93663.34
2023-01-17T09:10:37.933Z,93667.50
2023-01-17T09:13:06.803Z,93669.03
2023-01-17T09:15:33.466Z,93655.72
2023-01-17T09:18:01.370Z,93645.81
2023-01-17T09:20:30.198Z,93644.25
2023-01-17T09:22:57.771Z,93633.94
2023-01-17T09:25:24.356Z,93636.81
2023-01-17T09:27:50.991Z,93638.19
2023-01-17T09:30:17.798Z,93635.78
2023-01-17T09:32:44.377Z,93634.53
2023-01-17T09:35:11.101Z,93636.47
2023-01-17T09:37:37.755Z,93637.22
2023-01-17T09:40:04.886Z,93634.00
2023-01-17T09:42:39.716Z,93627.25
2023-01-17T09:45:16.484Z,93618.34
2023-01-17T09:47:52.645Z,93609.13
2023-01-17T09:50:23.531Z,93601.34
2023-01-17T09:53:04.476Z,93594.19
2023-01-17T09:55:40.517Z,93602.59
2023-01-17T09:58:19.621Z,93602.91
2023-01-17T10:00:58.320Z,93588.41
2023-01-17T10:03:43.267Z,93582.72
2023-01-17T10:06:34.779Z,93572.63
2023-01-17T10:09:10.657Z,93572.13
2023-01-17T10:12:04.477Z,93562.31
2023-01-17T10:14:46.027Z,93549.00
2023-01-17T10:17:40.067Z,93559.06
2023-01-17T10:20:34.859Z,93552.78
2023-01-17T10:23:18.477Z,93547.94
2023-01-17T10:25:49.758Z,93539.78
2023-01-17T10:28:20.280Z,93528.28
2023-01-17T10:30:52.501Z,93519.66
2023-01-17T10:33:22.972Z,93522.38
2023-01-17T10:36:05.390Z,93517.97
2023-01-17T10:38:36.053Z,93502.50
2023-01-17T10:41:14.803Z,93488.94
2023-01-17T10:43:50.544Z,93489.84
2023-01-17T10:46:22.049Z,93482.81
2023-01-17T10:48:51.688Z,93482.00
2023-01-17T10:51:49.872Z,93485.75
2023-01-17T10:54:38.773Z,93490.06
2023-01-17T10:57:05.453Z,93490.31
2023-01-17T10:59:35.094Z,93494.22
2023-01-17T11:02:07.475Z,93486.44
2023-01-17T11:04:37.400Z,93476.72
2023-01-17T11:07:14.381Z,93457.59
2023-01-17T11:09:46.533Z,93438.28
2023-01-17T11:12:24.099Z,93422.47
2023-01-17T11:14:58.711Z,93409.41
2023-01-17T11:17:27.643Z,93395.78
2023-01-17T11:20:05.806Z,93388.41
2023-01-17T11:22:32.807Z,93379.53
2023-01-17T11:25:00.201Z,93368.38
2023-01-17T11:27:30.043Z,93356.78
2023-01-17T11:30:16.250Z,93349.44
2023-01-17T11:32:54.052Z,93345.41
2023-01-17T11:35:25.601Z,93345.63
2023-01-17T11:38:04.613Z,93356.47
2023-01-17T11:40:42.213Z,93350.13
2023-01-17T11:43:11.597Z,93354.06
2023-01-17T11:45:39.432Z,93357.56
2023-01-17T11:48:09.138Z,93357.22
2023-01-17T11:50:55.377Z,93379.69
2023-01-17T11:53:40.469Z,93385.75
2023-01-17T11:56:19.466Z,93377.31
2023-01-17T11:58:47.391Z,93393.00
2023-01-17T12:01:47.430Z,93386.03
2023-01-17T12:04:24.063Z,93391.00
2023-01-17T12:07:11.645Z,93381.84
2023-01-17T12:09:45.578Z,93380.53
2023-01-17T12:12:53.669Z,93384.59
2023-01-17T12:15:52.171Z,93370.84
2023-01-17T12:18:33.531Z,93359.22
2023-01-17T12:21:12.414Z,93358.78
2023-01-17T12:24:03.427Z,93352.00
2023-01-17T12:26:50.447Z,93364.50
2023-01-17T12:29:46.479Z,93367.41
2023-01-17T12:32:34.759Z,93365.19
2023-01-17T12:35:01.520Z,93348.50
2023-01-17T12:37:35.098Z,93337.41
2023-01-17T12:40:27.978Z,93330.84
2023-01-17T12:43:22.580Z,93329.28
2023-01-17T12:45:51.767Z,93322.19
2023-01-17T12:48:20.405Z,93311.22
2023-01-17T12:51:00.259Z,93299.44
2023-01-17T12:53:56.597Z,93286.13
2023-01-17T12:56:26.795Z,93278.25
2023-01-17T12:59:07.539Z,93277.25
2023-01-17T13:01:43.256Z,93292.34
2023-01-17T13:04:24.370Z,93288.13
2023-01-17T13:06:56.849Z,93287.22
2023-01-17T13:09:23.723Z,93276.34
2023-01-17T13:11:57.720Z,93287.44
2023-01-17T13:14:24.849Z,93288.84
2023-01-17T13:16:58.880Z,93293.94
2023-01-17T13:19:37.432Z,93287.97
2023-01-17T13:22:10.445Z,93286.31
2023-01-17T13:25:18.720Z,93275.41
2023-01-17T13:28:14.232Z,93277.06
2023-01-17T13:31:18.191Z,93263.66
2023-01-17T13:34:07.682Z,93280.66
2023-01-17T13:37:23.292Z,93289.63
2023-01-17T13:39:58.775Z,93282.22
2023-01-17T13:42:34.688Z,93271.78
2023-01-17T13:45:08.230Z,93262.06
2023-01-17T13:47:37.394Z,93274.09
2023-01-17T13:50:06.700Z,93282.00
2023-01-17T13:52:33.788Z,93276.91
2023-01-17T13:55:07.161Z,93271.34
2023-01-17T13:57:43.743Z,93264.06
2023-01-17T14:00:21.324Z,93261.50
2023-01-17T14:02:49.620Z,93237.91
2023-01-17T14:05:32.126Z,93212.19
2023-01-17T14:08:02.338Z,93218.81
2023-01-17T14:10:47.198Z,93235.69
2023-01-17T14:13:36.345Z,93255.16
2023-01-17T14:16:22.893Z,93267.31
2023-01-17T14:18:50.092Z,93259.81
2023-01-17T14:21:23.471Z,93250.06
2023-01-17T14:24:11.121Z,93256.00
2023-01-17T14:26:42.067Z,93255.56
2023-01-17T14:29:42.687Z,93237.56
2023-01-17T14:32:12.385Z,93221.06
2023-01-17T14:34:39.163Z,93203.66
2023-01-17T14:37:16.779Z,93202.31
2023-01-17T14:39:45.775Z,93200.75
2023-01-17T14:42:19.409Z,93206.72
2023-01-17T14:44:59.207Z,93210.50
2023-01-17T14:47:28.262Z,93210.06
2023-01-17T14:50:22.753Z,93191.44
2023-01-17T14:53:30.573Z,93190.00
2023-01-17T14:55:58.690Z,93177.72
2023-01-17T14:58:31.493Z,93177.75
2023-01-17T15:01:00.044Z,93169.03
2023-01-17T15:03:27.396Z,93162.78
2023-01-17T15:05:56.485Z,93163.56
2023-01-17T15:08:30.226Z,93161.75
2023-01-17T15:11:05.396Z,93152.06
2023-01-17T15:13:49.453Z,93156.47
2023-01-17T15:16:25.720Z,93149.19
2023-01-17T15:18:54.491Z,93140.78
2023-01-17T15:21:31.654Z,93123.03
2023-01-17T15:24:03.501Z,93114.97
2023-01-17T15:26:34.146Z,93101.78
2023-01-17T15:29:23.776Z,93093.59
2023-01-17T15:31:54.274Z,93093.38
2023-01-17T15:34:51.372Z,93096.09
2023-01-17T15:37:36.270Z,93084.28
2023-01-17T15:40:18.704Z,93080.81
2023-01-17T15:42:58.384Z,93079.81
2023-01-17T15:45:31.951Z,93078.06
2023-01-17T15:48:18.788Z,93082.00
2023-01-17T15:50:45.675Z,93082.66
2023-01-17T15:53:37.214Z,93077.50
2023-01-17T15:56:39.135Z,93072.41
2023-01-17T15:59:58.353Z,93075.41
2023-01-17T16:02:31.021Z,93071.22
2023-01-17T16:04:59.537Z,93062.44
2023-01-17T16:07:35.257Z,93063.00
2023-01-17T16:10:07.531Z,93065.44
2023-01-17T16:12:34.130Z,93046.38
2023-01-17T16:15:11.774Z,93025.69
2023-01-17T16:17:42.356Z,93002.09
2023-01-17T16:20:37.082Z,93000.69
2023-01-17T16:23:03.985Z,92996.88
2023-01-17T16:25:32.758Z,92995.13
2023-01-17T16:28:00.698Z,92999.38
2023-01-17T16:30:28.674Z,93003.72
2023-01-17T16:32:56.636Z,92996.91
2023-01-17T16:35:28.435Z,93001.34
2023-01-17T16:38:03.436Z,92990.22
2023-01-17T16:40:32.973Z,92989.81
2023-01-17T16:43:00.604Z,92988.63
2023-01-17T16:45:27.680Z,92988.91
2023-01-17T16:47:54.763Z,92997.97
2023-01-17T16:50:24.644Z,93004.09
2023-01-17T16:52:53.244Z,93010.66
2023-01-17T16:55:22.318Z,93009.09
2023-01-17T16:57:49.993Z,93003.78
2023-01-17T17:00:17.285Z,93011.41
2023-01-17T17:02:43.989Z,93019.75
2023-01-17T17:05:10.898Z,93025.09
2023-01-17T17:07:43.018Z,93030.00
2023-01-17T17:10:14.537Z,93030.66
2023-01-17T17:12:41.683Z,93023.38
2023-01-17T17:15:09.252Z,93024.03
2023-01-17T17:17:41.067Z,93019.41
2023-01-17T17:20:14.283Z,93019.56
2023-01-17T17:22:43.064Z,93032.09
2023-01-17T17:25:10.206Z,93035.59
2023-01-17T17:27:36.841Z,93050.22
2023-01-17T17:30:03.820Z,93043.38
2023-01-17T17:32:31.445Z,93041.38
2023-01-17T17:34:58.082Z,93040.53
2023-01-17T17:37:28.588Z,93034.53
2023-01-17T17:39:56.111Z,93032.22
2023-01-17T17:42:22.878Z,93021.69
2023-01-17T17:44:49.519Z,93026.09
2023-01-17T17:47:16.460Z,93027.78
2023-01-17T17:49:43.548Z,93040.38
2023-01-17T17:52:10.796Z,93034.09
2023-01-17T17:54:37.560Z,93036.97
2023-01-17T17:57:05.251Z,93028.44
2023-01-17T17:59:32.007Z,93021.22
2023-01-17T18:01:59.840Z,93029.75
2023-01-17T18:04:27.166Z,93042.88
2023-01-17T18:06:59.996Z,93057.00
2023-01-17T18:09:26.686Z,93059.69
2023-01-17T18:11:53.594Z,93054.31
2023-01-17T18:14:23.908Z,93047.59
2023-01-17T18:16:51.249Z,93047.31
2023-01-17T18:19:22.152Z,93046.16
2023-01-17T18:21:50.437Z,93043.94
2023-01-17T18:24:19.814Z,93039.94
2023-01-17T18:26:56.910Z,93031.66
2023-01-17T18:29:24.766Z,93045.53
2023-01-17T18:31:52.716Z,93037.50
2023-01-17T18:34:23.744Z,93029.63
2023-01-17T18:36:51.414Z,93024.56
2023-01-17T18:39:20.804Z,93024.88
2023-01-17T18:41:49.461Z,93020.44
2023-01-17T18:44:16.900Z,93020.03
2023-01-17T18:46:43.732Z,93017.88
2023-01-17T18:49:11.723Z,93024.78
2023-01-17T18:51:38.992Z,93017.94
2023-01-17T18:54:07.131Z,93025.91
2023-01-17T18:56:34.329Z,93027.41
2023-01-17T18:59:01.231Z,93035.47
2023-01-17T19:01:30.625Z,93032.81
2023-01-17T19:03:59.534Z,93023.66
2023-01-17T19:06:32.067Z,93028.81
2023-01-17T19:08:59.312Z,93037.91
2023-01-17T19:11:27.284Z,93032.97
2023-01-17T19:13:54.458Z,93032.72
2023-01-17T19:16:29.654Z,93028.56
2023-01-17T19:18:58.243Z,93034.72
2023-01-17T19:21:27.343Z,93028.75
2023-01-17T19:23:55.064Z,93032.75
2023-01-17T19:26:24.015Z,93036.06
2023-01-17T19:28:51.115Z,93041.38
2023-01-17T19:31:21.047Z,93046.22
2023-01-17T19:33:50.068Z,93042.59
2023-01-17T19:36:19.323Z,93042.50
2023-01-17T19:39:03.000Z,93043.25
2023-01-17T19:41:31.241Z,93050.25
2023-01-17T19:44:00.649Z,93044.38
2023-01-17T19:46:27.794Z,93046.25
2023-01-17T19:48:56.289Z,93046.31
2023-01-17T19:51:24.466Z,93041.16
2023-01-17T19:53:51.591Z,93047.88
2023-01-17T19:56:24.519Z,93058.16
2023-01-17T19:58:52.427Z,93072.16
2023-01-17T20:01:22.407Z,93079.09
2023-01-17T20:03:49.983Z,93086.94
2023-01-17T20:06:19.558Z,93096.50
2023-01-17T20:08:46.321Z,93110.88
2023-01-17T20:11:15.819Z,93122.84
2023-01-17T20:13:42.484Z,93133.72
2023-01-17T20:16:11.497Z,93126.09
2023-01-17T20:18:38.659Z,93125.28
2023-01-17T20:21:14.907Z,93128.63
2023-01-17T20:23:43.096Z,93149.50
2023-01-17T20:26:11.255Z,93157.19
2023-01-17T20:28:39.705Z,93172.88
2023-01-17T20:31:12.775Z,93161.44
2023-01-17T20:33:44.431Z,93162.78
2023-01-17T20:36:14.970Z,93164.69
2023-01-17T20:38:45.371Z,93169.41
2023-01-17T20:41:13.546Z,93170.00
2023-01-17T20:43:41.137Z,93171.66
2023-01-17T20:46:08.158Z,93189.06
2023-01-17T20:48:34.864Z,93202.06
2023-01-17T20:51:06.688Z,93213.59
2023-01-17T20:53:34.542Z,93213.34
2023-01-17T20:56:01.574Z,93213.38
2023-01-17T20:58:28.388Z,93211.53
2023-01-17T21:00:56.122Z,93219.69
2023-01-17T21:03:23.987Z,93212.19
2023-01-17T21:05:59.683Z,93219.69
2023-01-17T21:08:26.260Z,93223.94
2023-01-17T21:10:52.841Z,93218.06
2023-01-17T21:13:20.585Z,93210.34
2023-01-17T21:15:48.902Z,93201.75
2023-01-17T21:18:17.296Z,93200.06
2023-01-17T21:20:44.139Z,93205.34
2023-01-17T21:23:17.872Z,93210.53
2023-01-17T21:25:58.010Z,93224.59
2023-01-17T21:28:28.716Z,93229.66
2023-01-17T21:30:56.142Z,93228.09
2023-01-17T21:33:25.350Z,93227.91
2023-01-17T21:35:52.655Z,93225.25
2023-01-17T21:38:19.254Z,93222.00
2023-01-17T21:40:45.952Z,93225.50
2023-01-17T21:43:13.063Z,93222.16
2023-01-17T21:45:41.581Z,93227.63
2023-01-17T21:48:14.619Z,93232.44
2023-01-17T21:50:41.282Z,93237.94
2023-01-17T21:53:10.118Z,93233.09
2023-01-17T21:55:56.159Z,93221.63
2023-01-17T21:58:41.576Z,93222.75
2023-01-17T22:01:18.824Z,93226.28
2023-01-17T22:03:52.134Z,93225.63
2023-01-17T22:06:19.600Z,93226.59
2023-01-17T22:08:46.651Z,93238.03
2023-01-17T22:11:16.244Z,93242.53
2023-01-17T22:13:44.159Z,93251.16
2023-01-17T22:16:14.312Z,93246.72
2023-01-17T22:18:43.043Z,93246.53
2023-01-17T22:21:14.283Z,93246.72
2023-01-17T22:23:47.873Z,93250.25
2023-01-17T22:26:15.555Z,93260.50
2023-01-17T22:28:42.679Z,93261.34
2023-01-17T22:31:11.511Z,93257.13
2023-01-17T22:33:39.871Z,93263.47
2023-01-17T22:36:07.673Z,93267.25
2023-01-17T22:38:34.562Z,93268.66
2023-01-17T22:41:07.803Z,93265.88
2023-01-17T22:43:36.931Z,93261.78
2023-01-17T22:46:08.388Z,93269.31
2023-01-17T22:48:36.668Z,93258.53
2023-01-17T22:51:05.090Z,93257.19
2023-01-17T22:53:32.018Z,93260.91
2023-01-17T22:56:00.604Z,93257.38
2023-01-17T22:58:28.780Z,93253.16
2023-01-17T23:01:06.084Z,93261.34
2023-01-17T23:03:34.395Z,93267.69
2023-01-17T23:06:16.101Z,93290.09
2023-01-17T23:08:45.005Z,93280.53
2023-01-17T23:11:41.237Z,93284.69
2023-01-17T23:14:54.187Z,93288.03
2023-01-17T23:17:41.243Z,93275.84
2023-01-17T23:20:09.642Z,93288.78
2023-01-17T23:22:36.642Z,93290.41
2023-01-17T23:25:07.742Z,93285.81
2023-01-17T23:28:11.188Z,93289.72
2023-01-17T23:30:40.901Z,93286.22
2023-01-17T23:33:10.318Z,93286.28
2023-01-17T23:35:42.129Z,93298.31
2023-01-17T23:38:34.000Z,93298.53
2023-01-17T23:41:23.281Z,93284.91
2023-01-17T23:43:54.323Z,93289.22
2023-01-17T23:46:21.418Z,93291.97
2023-01-17T23:48:48.400Z,93304.69
2023-01-17T23:51:15.159Z,93305.19
2023-01-17T23:53:41.833Z,93299.13
2023-01-17T23:56:20.411Z,93302.16
2023-01-17T23:58:47.016Z,93307.78
